Strona główna
METAR-TAF:

METAR-TAF

Lotnisko :

New Castle, Pensylwania, Stany Zjednoczone

Szerokość geograficzna: 41-01-31N, Długość geograficzna: 080-24-48W, wysokość: 326 m

Aktualna obserwacja pogody

Raport powstał 31 minut temu, godzina 07:56 UTC
Wiatr 3 kt od północ
Temperatura 4°C
Wilgotność 100%
Ciśnienie 1009 hPa
Widzialność: 16.1 km
Rozproszone chmury na wysokości 3500 ft
Zachmurzenie całkowite na wysokości 4400 ft
słaby deszcz

METAR: KUCP 250756Z AUTO 01003KT 10SM -RA SCT035 OVC044 04/04 A2980 RMK AO2 SLP110 T00440039 PNO $

czas: 03:27 (08:27 UTC)


TAF: brakujący

Obserwacja i prognoza pogody dla ponad 4000 lotnisk (raport METAR i TAF).

Dostępne stacje oznaczono żółtymi i czerwonymi punktami na mapie.

Najedź kursorem aby zobaczyć nazwę stacji.

Kliknij aby zobaczyć obserwacje i prognozy pogody.

Aby zmienić mapę: kliknij na zielony przycisk z czarnym krzyżykiem, aby powiększyć; na zielony przycisk z myślnikiem, aby pomniejszyć; na zielone strzałki, aby przejść do map sąsiednich.


METAR-TAF: